»·PEaware :: FFT2078 KSFO-KLAS

FFT2078 :: KSFO-KLAS

FLIGHT INFORMATION

Flight Status: Arrived
Operator:
Frontier Airlines
More flights by this operator :: More flights under this callsign
Pilot: Andrew J. (13363)
Aircraft: AIRBUS A321
(A321)
More flights by this aircraft type
Origin: KSFO San Francisco Intl
United States
Destination: KLAS McCarran Intl
United States
More flights between these airports :: More routes between these airports
Route: +SSTIK4 NTELL Q162 ESSAA BTY SUNST4
File this flight plan on PilotEdge
Remarks:
Altitude:
(Current/Filed)
37,000ft
Speed:
(Current/Filed)
458kts
Departed: 02-Oct-20 09:03 PM
Arrived: 02-Oct-20 09:58 PM
Distance/Time
Traveled:
360nm/0:55
Distance/Time
To Go:
Arrived

Flight Plot

Page will automatically refresh every two minutes.

Flight plan parsing failed; only flown route is shown


Map Options




Map Legend


Flown Route
Filed Route
Departure Airport
Arrival Airport
Navaid (VOR, NDB)
Fix

Horizontal Profiles

Position Reports

Time Latitude Longitude Heading Altitude Ground
Speed
02-Oct-20 20:53 37.617718 -122.389591 205 32ft 0kts
02-Oct-20 20:53 37.617718 -122.389591 205 32ft 0kts
02-Oct-20 20:54 37.617987 -122.389433 205 32ft 2kts
02-Oct-20 20:55 37.618547 -122.389036 220 32ft 0kts
02-Oct-20 20:56 37.618576 -122.389004 222 32ft 0kts
02-Oct-20 20:57 37.618852 -122.390271 298 32ft 13kts
02-Oct-20 20:58 37.622424 -122.389342 81 30ft 23kts
02-Oct-20 20:59 37.619703 -122.382095 118 32ft 23kts
02-Oct-20 21:00 37.614222 -122.381262 208 31ft 24kts
02-Oct-20 21:01 37.608399 -122.383834 120 32ft 23kts
02-Oct-20 21:02 37.625780 -122.370617 25 514ft 162kts
02-Oct-20 21:03 37.630608 -122.318133 115 2880ft 200kts
02-Oct-20 21:04 37.606928 -122.241392 112 4943ft 271kts
02-Oct-20 21:05 37.580267 -122.149693 111 8577ft 282kts
02-Oct-20 21:06 37.555117 -122.062946 111 11105ft 311kts
02-Oct-20 21:07 37.521398 -121.946852 110 12488ft 384kts
02-Oct-20 21:08 37.480146 -121.805395 111 15045ft 418kts
02-Oct-20 21:09 37.455728 -121.652581 90 17706ft 440kts
02-Oct-20 21:10 37.455097 -121.488935 91 20072ft 456kts
02-Oct-20 21:11 37.451971 -121.320722 92 22156ft 471kts
02-Oct-20 21:12 37.448132 -121.145241 92 24050ft 483kts
02-Oct-20 21:13 37.444129 -120.976260 92 26619ft 471kts
02-Oct-20 21:14 37.440054 -120.812575 92 28691ft 465kts
02-Oct-20 21:15 37.435781 -120.650286 92 30460ft 462kts
02-Oct-20 21:16 37.431318 -120.489563 92 32007ft 460kts
02-Oct-20 21:17 37.426626 -120.328552 93 33434ft 459kts
02-Oct-20 21:18 37.421756 -120.168693 93 34750ft 457kts
02-Oct-20 21:19 37.416658 -120.008697 93 34945ft 456kts
02-Oct-20 21:20 37.411369 -119.849588 93 34956ft 456kts
02-Oct-20 21:21 37.405866 -119.690313 93 34957ft 456kts
02-Oct-20 21:22 37.400148 -119.531031 93 34953ft 456kts
02-Oct-20 21:23 37.394203 -119.371533 93 35051ft 457kts
02-Oct-20 21:24 37.388055 -119.211930 93 35294ft 455kts
02-Oct-20 21:25 37.381699 -119.053039 93 35370ft 454kts
02-Oct-20 21:26 37.375102 -118.894516 93 35381ft 451kts
02-Oct-20 21:27 37.368377 -118.737134 92 35374ft 450kts
02-Oct-20 21:28 37.363066 -118.620786 82 35323ft 472kts
02-Oct-20 21:29 37.355549 -118.444473 84 35306ft 505kts
02-Oct-20 21:30 37.346670 -118.253721 85 35301ft 538kts
02-Oct-20 21:31 37.336976 -118.053581 86 35302ft 568kts
02-Oct-20 21:32 37.326541 -117.845624 86 35299ft 589kts
02-Oct-20 21:33 37.315401 -117.632852 86 35297ft 589kts
02-Oct-20 21:34 37.303306 -117.418157 90 35296ft 592kts
02-Oct-20 21:35 37.245804 -117.219360 126 35299ft 605kts
02-Oct-20 21:36 37.138305 -117.048706 130 35297ft 603kts
02-Oct-20 21:37 37.014593 -116.896065 153 35299ft 587kts
02-Oct-20 21:38 36.869892 -116.795428 157 35295ft 582kts
02-Oct-20 21:39 36.739750 -116.664343 136 34947ft 577kts
02-Oct-20 21:40 36.637712 -116.516999 129 29966ft 572kts
02-Oct-20 21:41 36.533356 -116.368495 127 23737ft 541kts
02-Oct-20 21:42 36.441778 -116.238775 126 21038ft 466kts
02-Oct-20 21:43 36.356247 -116.118254 126 19218ft 434kts
02-Oct-20 21:44 36.278303 -116.009061 127 17693ft 401kts
02-Oct-20 21:45 36.205879 -115.905884 120 16402ft 395kts
02-Oct-20 21:46 36.165682 -115.792177 108 16298ft 383kts
02-Oct-20 21:47 36.124828 -115.664778 109 14844ft 385kts
02-Oct-20 21:48 36.084952 -115.541306 109 12950ft 376kts
02-Oct-20 21:49 36.045743 -115.420655 109 11130ft 356kts
02-Oct-20 21:50 36.025903 -115.307850 92 10406ft 317kts
02-Oct-20 21:51 36.019006 -115.207708 94 9002ft 278kts
02-Oct-20 21:52 36.012995 -115.120938 93 7513ft 252kts
02-Oct-20 21:53 36.010231 -115.038456 68 5949ft 220kts
02-Oct-20 21:54 36.055178 -115.028366 320 4448ft 183kts
02-Oct-20 21:55 36.076332 -115.077327 258 2971ft 155kts
02-Oct-20 21:56 36.073733 -115.125503 270 2222ft 139kts
02-Oct-20 21:57 36.074257 -115.149427 294 2187ft 21kts
02-Oct-20 21:58 36.078043 -115.151497 87 2187ft 15kts
02-Oct-20 21:59 36.077589 -115.144139 94 2187ft 24kts
02-Oct-20 22:00 36.077561 -115.135906 90 2187ft 23kts
02-Oct-20 22:01 36.079566 -115.132939 359 2187ft 14kts
02-Oct-20 22:02 36.082280 -115.135035 314 2187ft 8kts
02-Oct-20 22:03 36.082337 -115.135106 314 2187ft 0kts
02-Oct-20 22:04 36.082337 -115.135106 314 2187ft 0kts
02-Oct-20 22:05 36.082337 -115.135106 314 2187ft 0kts
02-Oct-20 22:06 36.082337 -115.135106 314 2187ft 0kts
02-Oct-20 22:07 36.082337 -115.135106 314 2187ft 0kts

Navigation Log

Ident Type
Flight plan parsing failed, navigation log unavailable